createdAt,value
2019-03-20T00:01:07.925Z,12.8
2019-03-20T00:06:29.289Z,13.8
2019-03-20T00:11:52.726Z,15.5
2019-03-20T00:17:15.941Z,19.5
2019-03-20T00:22:38.814Z,12.1
2019-03-20T00:28:02.594Z,16.799999
2019-03-20T00:33:25.238Z,19.700001
2019-03-20T00:38:47.917Z,18.700001
2019-03-20T00:44:10.707Z,17.799999
2019-03-20T00:49:33.491Z,36.299999
2019-03-20T00:54:56.186Z,58.900002
2019-03-20T01:00:18.861Z,17.299999
2019-03-20T01:05:41.661Z,18.299999
2019-03-20T01:11:04.303Z,20.299999
2019-03-20T01:16:26.928Z,25
2019-03-20T01:21:49.585Z,18.700001
2019-03-20T01:27:12.289Z,20
2019-03-20T01:32:35.003Z,23.9
2019-03-20T01:37:57.656Z,19.1
2019-03-20T01:43:20.280Z,21.9
2019-03-20T01:48:43.927Z,20.799999
2019-03-20T01:54:07.239Z,18.200001
2019-03-20T01:59:29.944Z,23.4
2019-03-20T02:04:53.596Z,21.4
2019-03-20T02:10:16.236Z,28.1
2019-03-20T02:15:39.791Z,29.799999
2019-03-20T02:21:02.127Z,28.700001
2019-03-20T02:26:24.802Z,21.5
2019-03-20T02:31:47.464Z,24.299999
2019-03-20T02:37:10.142Z,23.299999
2019-03-20T02:42:32.788Z,30.6
2019-03-20T02:47:55.411Z,25.1
2019-03-20T02:53:18.247Z,26.799999
2019-03-20T02:58:40.909Z,23.700001
2019-03-20T03:04:03.613Z,22.6
2019-03-20T03:09:26.288Z,21.200001
2019-03-20T03:14:48.928Z,27.700001
2019-03-20T03:20:11.649Z,27
2019-03-20T03:25:34.407Z,27.5
2019-03-20T03:30:57.204Z,26.799999
2019-03-20T03:36:21.389Z,27.700001
2019-03-20T03:41:42.592Z,24.9
2019-03-20T03:47:05.285Z,26.700001
2019-03-20T03:52:27.907Z,29.5
2019-03-20T03:57:50.561Z,25.4
2019-03-20T04:03:13.201Z,28.1
2019-03-20T04:08:36.007Z,31.299999
2019-03-20T04:13:58.714Z,29.6
2019-03-20T04:19:22.521Z,29.200001
2019-03-20T04:24:45.211Z,27
2019-03-20T04:30:08.523Z,27.299999
2019-03-20T04:35:31.454Z,27.6
2019-03-20T04:40:54.387Z,29.1
2019-03-20T04:46:17.113Z,27.200001
2019-03-20T04:51:39.900Z,31.4
2019-03-20T04:57:02.754Z,24.299999
2019-03-20T05:02:25.383Z,31.4
2019-03-20T05:07:47.985Z,28.6
2019-03-20T05:13:10.639Z,32.599998
2019-03-20T05:18:33.519Z,31.799999
2019-03-20T05:23:56.277Z,31.700001
2019-03-20T05:29:20.006Z,28.6
2019-03-20T05:34:42.593Z,33.099998
2019-03-20T05:40:05.259Z,31.299999
2019-03-20T05:45:28.016Z,28.299999
2019-03-20T05:50:51.219Z,28.799999
2019-03-20T05:56:13.968Z,30.200001
2019-03-20T06:01:36.691Z,29.4
2019-03-20T06:06:59.368Z,33.799999
2019-03-20T06:12:22.064Z,32
2019-03-20T06:17:46.683Z,29
2019-03-20T06:23:07.296Z,44.900002
2019-03-20T06:28:30.990Z,29.1
2019-03-20T06:33:53.618Z,26.299999
2019-03-20T06:39:16.234Z,24.799999
2019-03-20T06:44:38.982Z,33.299999
2019-03-20T06:50:01.610Z,26.299999
2019-03-20T06:55:24.274Z,30.5
2019-03-20T07:00:46.893Z,42.400002
2019-03-20T07:06:09.549Z,23.299999
2019-03-20T07:11:32.288Z,28
2019-03-20T07:16:54.976Z,21.9
2019-03-20T07:22:17.707Z,26.9
2019-03-20T07:27:40.498Z,25.6
2019-03-20T07:33:03.248Z,22.299999
2019-03-20T07:38:26.030Z,22.700001
2019-03-20T07:43:48.734Z,21
2019-03-20T07:49:11.754Z,17.4
2019-03-20T07:54:34.419Z,18.799999
2019-03-20T07:59:57.032Z,18.700001
2019-03-20T08:05:28.650Z,18
2019-03-20T08:10:43.446Z,20.299999
2019-03-20T08:16:06.155Z,20.5
2019-03-20T08:21:28.775Z,18.700001
2019-03-20T08:26:51.866Z,22
2019-03-20T08:32:14.853Z,28.6
2019-03-20T08:37:37.476Z,19.799999
2019-03-20T08:43:00.202Z,21
2019-03-20T08:48:22.866Z,23.799999
2019-03-20T08:53:45.502Z,25
2019-03-20T08:59:08.273Z,23.6
2019-03-20T09:04:30.925Z,22.6
2019-03-20T09:09:53.593Z,22.6
2019-03-20T09:15:16.207Z,22.1
2019-03-20T09:20:38.846Z,21.1
2019-03-20T09:26:02.508Z,20.4
2019-03-20T09:31:25.926Z,21.799999
2019-03-20T09:36:48.552Z,21.700001
2019-03-20T09:42:11.249Z,19.1
2019-03-20T09:47:33.970Z,22.4
2019-03-20T09:52:57.113Z,18
2019-03-20T09:58:19.853Z,16.9
2019-03-20T10:03:43.425Z,19.5
2019-03-20T10:09:06.020Z,20.299999
2019-03-20T10:14:28.688Z,16.6
2019-03-20T10:19:51.340Z,19.9
2019-03-20T10:25:13.995Z,22.9
2019-03-20T10:30:36.593Z,20.5
2019-03-20T10:35:59.298Z,22.5
2019-03-20T10:41:21.943Z,20.700001
2019-03-20T10:46:44.769Z,22.5
2019-03-20T10:52:07.492Z,20.6
2019-03-20T10:57:30.131Z,19.6
2019-03-20T11:02:52.794Z,21.299999
2019-03-20T11:08:15.449Z,21.6
2019-03-20T11:13:38.184Z,23.9
2019-03-20T11:19:00.936Z,22.1
2019-03-20T11:24:23.710Z,21.700001
2019-03-20T11:29:46.759Z,20.200001
2019-03-20T11:35:09.399Z,20.299999
2019-03-20T11:40:32.075Z,20.1
2019-03-20T11:45:55.515Z,18
2019-03-20T11:51:18.353Z,17.5
2019-03-20T11:56:41.192Z,19.299999
2019-03-20T12:02:03.829Z,17.200001
2019-03-20T12:07:26.533Z,15.9
2019-03-20T12:12:49.231Z,13.3
2019-03-20T12:18:13.405Z,12.4
2019-03-20T12:23:36.128Z,15.4
2019-03-20T12:28:59.264Z,12.6
2019-03-20T12:34:22.645Z,9.9
2019-03-20T12:39:52.991Z,9.7
2019-03-20T12:45:10.409Z,9.4
2019-03-20T12:50:33.062Z,10.5
2019-03-20T12:55:55.635Z,11.1
2019-03-20T13:01:18.221Z,10.7
2019-03-20T13:06:40.864Z,12.3
2019-03-20T13:12:03.522Z,11.6
2019-03-20T13:17:26.280Z,12
2019-03-20T13:22:48.825Z,11.6
2019-03-20T13:28:11.609Z,10.5
2019-03-20T13:33:34.235Z,13
2019-03-20T13:38:56.853Z,10
2019-03-20T13:44:20.121Z,11.6
2019-03-20T13:49:42.710Z,10.4
2019-03-20T13:55:05.363Z,12.1
2019-03-20T14:00:27.945Z,11.6
2019-03-20T14:05:51.690Z,11.5
2019-03-20T14:11:14.335Z,13.2
2019-03-20T14:16:37.125Z,11
2019-03-20T14:21:59.756Z,10.9
2019-03-20T14:27:22.354Z,15.2
2019-03-20T14:32:45.022Z,14.6
2019-03-20T14:38:07.671Z,13.5
2019-03-20T14:43:30.392Z,15.3
2019-03-20T14:48:53.134Z,16.200001
2019-03-20T14:54:16.628Z,14.7
2019-03-20T14:59:39.739Z,13.2
2019-03-20T15:05:02.494Z,14.1
2019-03-20T15:10:25.192Z,12.9
2019-03-20T15:15:47.868Z,12.4
2019-03-20T15:21:10.485Z,13.2
2019-03-20T15:26:33.086Z,12.4
2019-03-20T15:31:55.763Z,13.7
2019-03-20T15:37:18.339Z,10.8
2019-03-20T15:42:41.498Z,11.3
2019-03-20T15:48:04.156Z,11.2
2019-03-20T15:53:26.754Z,12.5
2019-03-20T15:58:49.402Z,12.9
2019-03-20T16:04:12.065Z,13.1
2019-03-20T16:09:34.656Z,12.9
2019-03-20T16:14:57.256Z,12.7
2019-03-20T16:20:20.023Z,11.8
2019-03-20T16:25:42.677Z,12
2019-03-20T16:31:05.337Z,14
2019-03-20T16:36:27.953Z,14.9
2019-03-20T16:41:50.712Z,15.1
2019-03-20T16:47:13.444Z,17.5
2019-03-20T16:52:36.178Z,14.5
2019-03-20T16:57:58.732Z,13.5
2019-03-20T17:03:21.392Z,15.4
2019-03-20T17:08:44.024Z,13.6
2019-03-20T17:14:06.649Z,13.7
2019-03-20T17:19:29.265Z,14.9
2019-03-20T17:24:51.890Z,14.9
2019-03-20T17:30:14.630Z,16.799999
2019-03-20T17:35:37.526Z,14.3
2019-03-20T17:41:00.316Z,16.299999
2019-03-20T17:46:22.949Z,16.6
2019-03-20T17:51:45.569Z,13.8
2019-03-20T17:57:08.175Z,14.1
2019-03-20T18:02:29.297Z,15.3
2019-03-20T18:07:52.065Z,15.2
2019-03-20T18:13:14.785Z,14.6
2019-03-20T18:18:37.395Z,13.9
2019-03-20T18:24:00.014Z,15.8
2019-03-20T18:29:22.629Z,14.7
2019-03-20T18:34:46.018Z,18.299999
2019-03-20T18:40:09.635Z,16.799999
2019-03-20T18:45:32.257Z,15.8
2019-03-20T18:50:54.890Z,15.5
2019-03-20T18:56:17.602Z,16.4
2019-03-20T19:01:41.317Z,15.6
2019-03-20T19:07:04.060Z,15.3
2019-03-20T19:12:29.855Z,17.1
2019-03-20T19:17:53.276Z,14.9
2019-03-20T19:23:15.888Z,16.1
2019-03-20T19:28:38.860Z,15.8
2019-03-20T19:34:01.660Z,19.5
2019-03-20T19:39:24.365Z,15.9
2019-03-20T19:44:47.045Z,16.1
2019-03-20T19:50:09.758Z,19.1
2019-03-20T19:55:32.790Z,17.200001
2019-03-20T20:00:55.566Z,17.6
2019-03-20T20:06:18.587Z,20
2019-03-20T20:11:41.248Z,21.4
2019-03-20T20:17:04.044Z,21.200001
2019-03-20T20:22:26.701Z,22.4
2019-03-20T20:27:49.496Z,25.200001
2019-03-20T20:33:12.064Z,20.1
2019-03-20T20:38:34.684Z,24
2019-03-20T20:43:58.331Z,21.299999
2019-03-20T20:49:20.978Z,22.200001
2019-03-20T20:54:44.535Z,22.700001
2019-03-20T21:00:07.522Z,23.299999
2019-03-20T21:05:30.373Z,20.5
2019-03-20T21:10:53.220Z,21.1
2019-03-20T21:16:16.084Z,24.9
2019-03-20T21:21:38.944Z,24.799999
2019-03-20T21:27:01.963Z,23.5
2019-03-20T21:32:24.827Z,28.4
2019-03-20T21:37:47.597Z,24.4
2019-03-20T21:43:10.455Z,26.9
2019-03-20T21:48:33.152Z,24.9
2019-03-20T21:53:56.855Z,27.6
2019-03-20T21:59:19.554Z,27.1
2019-03-20T22:04:42.179Z,26.799999
2019-03-20T22:10:04.841Z,28.4
2019-03-20T22:15:27.437Z,24.6
2019-03-20T22:20:50.267Z,30.5
2019-03-20T22:26:12.941Z,27.9
2019-03-20T22:31:35.599Z,29.1
2019-03-20T22:36:58.191Z,32.799999
2019-03-20T22:42:21.375Z,29.700001
2019-03-20T22:47:44.886Z,30.9
2019-03-20T22:53:08.374Z,33.599998
2019-03-20T22:58:31.042Z,33.200001
2019-03-20T23:03:53.710Z,28.1
2019-03-20T23:09:16.333Z,32.200001
2019-03-20T23:14:38.935Z,33
2019-03-20T23:20:01.532Z,30
2019-03-20T23:25:24.148Z,30.4
2019-03-20T23:30:46.766Z,33.5
2019-03-20T23:36:09.740Z,34.099998
2019-03-20T23:41:32.977Z,42.200001
2019-03-20T23:46:55.625Z,37.299999
2019-03-20T23:52:18.331Z,35.5
2019-03-20T23:57:40.896Z,42.900002
